Time;durP1;ratioP1;P1;durP2;ratioP2;P2;SDS_P1;SDS_P2;PMS_P1;PMS_P2;Temp;Humidity;BMP_temperature;BMP_pressure;BME280_temperature;BME280_humidity;BME280_pressure;Samples;Min_cycle;Max_cycle;Signal;HPM_P1;HPM_P2
2021/01/01 00:00:13;;;;;;;12.87;8.30;;;1.30;99.90;;;;;;5036309;28;20171;-57
2021/01/01 00:02:38;;;;;;;11.30;8.00;;;1.30;99.90;;;;;;5036662;28;20206;-56
2021/01/01 00:05:05;;;;;;;12.23;9.00;;;1.30;99.90;;;;;;5037307;28;20927;-52
2021/01/01 00:07:30;;;;;;;10.53;8.50;;;1.30;99.90;;;;;;5036230;28;20243;-57
2021/01/01 00:09:56;;;;;;;10.63;8.23;;;1.20;99.90;;;;;;5035770;28;20443;-58
2021/01/01 00:12:21;;;;;;;11.90;9.10;;;1.30;99.90;;;;;;5034849;28;20179;-57
2021/01/01 00:14:47;;;;;;;12.40;9.50;;;1.20;99.90;;;;;;5037402;28;20559;-53
2021/01/01 00:17:13;;;;;;;11.60;9.03;;;1.20;99.90;;;;;;5036113;28;20172;-56
2021/01/01 00:19:38;;;;;;;11.03;8.70;;;1.20;99.90;;;;;;5036379;28;20644;-55
2021/01/01 00:22:10;;;;;;;11.40;8.80;;;1.20;99.90;;;;;;5036662;28;20247;-55
2021/01/01 00:24:35;;;;;;;13.30;8.30;;;1.10;99.90;;;;;;5035580;28;20266;-54
2021/01/01 00:27:01;;;;;;;10.67;8.00;;;1.10;99.90;;;;;;5034795;28;20462;-59
2021/01/01 00:29:26;;;;;;;12.80;9.00;;;1.10;99.90;;;;;;5037251;28;20199;-53
2021/01/01 00:31:52;;;;;;;11.27;8.47;;;1.10;99.90;;;;;;5034986;28;20623;-55
2021/01/01 00:34:17;;;;;;;11.33;8.80;;;1.10;99.90;;;;;;5036276;28;20208;-55
2021/01/01 00:36:43;;;;;;;11.30;8.87;;;1.10;99.90;;;;;;5037192;28;20207;-54
2021/01/01 00:39:08;;;;;;;11.27;8.17;;;1.10;99.90;;;;;;5038194;28;20192;-55
2021/01/01 00:41:34;;;;;;;11.47;8.40;;;1.10;99.90;;;;;;5036585;28;20186;-56
2021/01/01 00:44:00;;;;;;;11.30;8.73;;;1.00;99.90;;;;;;5036288;28;20272;-59
2021/01/01 00:46:27;;;;;;;12.00;8.30;;;1.00;99.90;;;;;;5035379;28;20207;-57
2021/01/01 00:48:53;;;;;;;12.97;8.67;;;1.00;99.90;;;;;;5036359;28;20952;-55
2021/01/01 00:51:29;;;;;;;9.80;8.10;;;1.00;99.90;;;;;;5036017;28;20414;-54
2021/01/01 00:53:55;;;;;;;12.37;9.00;;;1.00;99.90;;;;;;5036985;28;20195;-54
2021/01/01 00:56:21;;;;;;;12.57;9.17;;;1.00;99.90;;;;;;5034482;28;20545;-57
2021/01/01 00:58:49;;;;;;;12.30;9.50;;;1.00;99.90;;;;;;5035299;28;20199;-56
2021/01/01 01:01:19;;;;;;;12.63;9.33;;;0.90;99.90;;;;;;5035337;28;20410;-58
2021/01/01 01:03:45;;;;;;;13.30;9.80;;;0.90;99.90;;;;;;5035578;28;20438;-52
2021/01/01 01:06:11;;;;;;;13.43;10.40;;;0.80;99.90;;;;;;5034122;28;20407;-53
2021/01/01 01:08:36;;;;;;;15.93;10.83;;;0.80;99.90;;;;;;5034572;28;20191;-55
2021/01/01 01:11:02;;;;;;;14.83;10.73;;;0.80;99.90;;;;;;5035927;28;20183;-54
2021/01/01 01:13:28;;;;;;;16.67;12.17;;;0.80;99.90;;;;;;5034080;28;20235;-56
2021/01/01 01:15:53;;;;;;;15.57;11.47;;;0.80;99.90;;;;;;5035206;28;20449;-56
2021/01/01 01:18:19;;;;;;;14.93;11.53;;;0.90;99.90;;;;;;5034708;28;20212;-58
2021/01/01 01:20:44;;;;;;;16.27;12.90;;;0.80;99.90;;;;;;5035381;28;20202;-53
2021/01/01 01:23:10;;;;;;;18.53;13.97;;;0.80;99.90;;;;;;5033676;28;20703;-52
2021/01/01 01:25:36;;;;;;;20.20;15.60;;;0.80;99.90;;;;;;5034239;28;20176;-54
2021/01/01 01:28:02;;;;;;;19.90;14.50;;;0.80;99.90;;;;;;5031791;28;20216;-58
2021/01/01 01:30:27;;;;;;;19.47;14.33;;;0.80;99.90;;;;;;5033328;28;20306;-54
2021/01/01 01:32:53;;;;;;;20.43;14.93;;;0.80;99.90;;;;;;5032290;28;20522;-58
2021/01/01 01:35:18;;;;;;;19.33;14.10;;;0.80;99.90;;;;;;5032101;28;20210;-59
2021/01/01 01:37:44;;;;;;;20.10;15.03;;;0.80;99.90;;;;;;5030189;28;20208;-58
2021/01/01 01:40:10;;;;;;;21.37;15.67;;;0.80;99.90;;;;;;5032970;28;20195;-56
2021/01/01 01:42:35;;;;;;;20.73;14.30;;;0.90;99.90;;;;;;5016415;28;20214;-52
2021/01/01 01:45:02;;;;;;;18.37;14.77;;;0.90;99.90;;;;;;5013835;28;20806;-52
2021/01/01 01:47:28;;;;;;;17.63;14.13;;;1.00;99.90;;;;;;5032129;28;20215;-54
2021/01/01 01:49:53;;;;;;;18.93;14.50;;;1.00;99.90;;;;;;5032595;28;20518;-59
2021/01/01 01:52:20;;;;;;;17.87;14.30;;;1.10;99.90;;;;;;5032415;28;20172;-56
2021/01/01 01:54:47;;;;;;;16.90;13.13;;;1.10;99.90;;;;;;5034771;28;20200;-59
2021/01/01 01:57:13;;;;;;;17.73;13.50;;;1.10;99.90;;;;;;5034338;28;20798;-54
2021/01/01 01:59:40;;;;;;;18.30;13.80;;;1.00;99.90;;;;;;5034090;28;20426;-57
2021/01/01 02:02:05;;;;;;;18.77;13.53;;;1.00;99.90;;;;;;5032899;28;20218;-53
2021/01/01 02:04:31;;;;;;;16.47;13.70;;;1.00;99.90;;;;;;5032505;28;20451;-52
2021/01/01 02:06:57;;;;;;;20.30;13.93;;;1.00;99.90;;;;;;5033408;28;20229;-56
2021/01/01 02:09:23;;;;;;;18.93;12.77;;;1.00;99.90;;;;;;5033937;28;20203;-58
2021/01/01 02:11:49;;;;;;;18.10;14.03;;;0.90;99.90;;;;;;5034320;28;20202;-52
2021/01/01 02:14:16;;;;;;;16.77;13.63;;;0.70;99.90;;;;;;5034836;28;20477;-55
2021/01/01 02:16:42;;;;;;;15.93;13.40;;;0.70;99.90;;;;;;5034218;28;20407;-55
2021/01/01 02:19:11;;;;;;;18.17;14.40;;;0.60;99.90;;;;;;5036167;28;20922;-52
2021/01/01 02:21:40;;;;;;;18.87;14.10;;;0.60;99.90;;;;;;5038703;28;20410;-52
2021/01/01 02:24:07;;;;;;;19.80;13.83;;;0.70;99.90;;;;;;5037496;28;20421;-59
2021/01/01 02:26:32;;;;;;;16.90;13.07;;;0.60;99.90;;;;;;5038211;28;20415;-59
2021/01/01 02:28:58;;;;;;;19.10;13.90;;;0.50;99.90;;;;;;5036288;28;20468;-53
2021/01/01 02:31:23;;;;;;;15.50;12.30;;;0.50;99.90;;;;;;5021162;28;20690;-52
2021/01/01 02:33:49;;;;;;;18.33;13.07;;;0.50;99.90;;;;;;5037051;28;20737;-57
2021/01/01 02:36:14;;;;;;;18.40;13.50;;;0.50;99.90;;;;;;5038645;28;20616;-56
2021/01/01 02:38:40;;;;;;;16.23;11.53;;;0.50;99.90;;;;;;5036997;28;20230;-56
2021/01/01 02:41:06;;;;;;;16.67;12.20;;;0.50;99.90;;;;;;5038007;28;20191;-55
2021/01/01 02:43:31;;;;;;;16.07;12.30;;;0.40;99.90;;;;;;5020202;28;20203;-57
2021/01/01 02:45:57;;;;;;;16.53;12.57;;;0.40;99.90;;;;;;5039317;28;20409;-53
2021/01/01 02:48:23;;;;;;;16.93;12.63;;;0.40;99.90;;;;;;5037164;28;20215;-53
2021/01/01 02:50:48;;;;;;;16.33;12.83;;;0.30;99.90;;;;;;5037202;28;20195;-54
2021/01/01 02:53:14;;;;;;;16.93;12.03;;;0.30;99.90;;;;;;5034996;28;20283;-59
2021/01/01 02:55:40;;;;;;;14.97;11.63;;;0.30;99.90;;;;;;5036710;28;20184;-57
2021/01/01 02:58:07;;;;;;;15.10;10.83;;;0.20;99.90;;;;;;5029262;28;20219;-54
2021/01/01 03:00:35;;;;;;;14.80;11.33;;;0.20;99.90;;;;;;5016792;28;20700;-51
2021/01/01 03:03:00;;;;;;;15.07;11.27;;;0.20;99.90;;;;;;5018483;28;20419;-51
2021/01/01 03:05:26;;;;;;;13.90;10.57;;;0.10;99.90;;;;;;5018118;28;20412;-51
2021/01/01 03:07:52;;;;;;;15.67;10.90;;;0.10;99.90;;;;;;5016493;28;20200;-54
2021/01/01 03:10:18;;;;;;;15.40;11.17;;;0.10;99.90;;;;;;5016642;28;20189;-58
2021/01/01 03:12:43;;;;;;;13.70;11.03;;;0.10;99.90;;;;;;5017387;28;20177;-57
2021/01/01 03:15:09;;;;;;;13.23;9.93;;;0.10;99.90;;;;;;5019388;28;20486;-59
2021/01/01 03:17:35;;;;;;;15.00;10.50;;;0.10;99.90;;;;;;5035734;28;20217;-57
2021/01/01 03:20:01;;;;;;;13.47;10.23;;;0.00;99.90;;;;;;5035671;28;20506;-54
2021/01/01 03:22:26;;;;;;;15.17;10.30;;;0.10;99.90;;;;;;5032159;28;20618;-57
2021/01/01 03:24:52;;;;;;;13.23;9.70;;;0.10;99.90;;;;;;5037863;28;20202;-54
2021/01/01 03:27:17;;;;;;;14.17;10.53;;;0.10;99.90;;;;;;5036396;28;20168;-54
2021/01/01 03:29:43;;;;;;;13.33;10.27;;;0.10;99.90;;;;;;5034623;28;20226;-54
2021/01/01 03:32:08;;;;;;;12.47;9.90;;;0.10;99.90;;;;;;5036427;28;20198;-56
2021/01/01 03:34:34;;;;;;;13.63;9.70;;;0.20;99.90;;;;;;5036228;28;20223;-51
2021/01/01 03:37:00;;;;;;;13.27;10.50;;;0.20;99.90;;;;;;5037591;28;20176;-51
2021/01/01 03:39:25;;;;;;;14.43;10.40;;;0.20;99.90;;;;;;5036242;28;20640;-53
2021/01/01 03:41:51;;;;;;;13.37;9.43;;;0.20;99.90;;;;;;5019080;28;20178;-52
2021/01/01 03:44:16;;;;;;;14.10;10.03;;;0.20;99.90;;;;;;5037740;28;20675;-52
2021/01/01 03:46:42;;;;;;;14.13;10.50;;;0.20;99.90;;;;;;5036583;28;20242;-59
2021/01/01 03:49:07;;;;;;;12.07;9.40;;;0.20;99.90;;;;;;5035695;28;20270;-56
2021/01/01 03:51:33;;;;;;;11.87;9.37;;;0.20;99.90;;;;;;5036147;28;20198;-51
2021/01/01 03:53:58;;;;;;;11.70;9.33;;;0.20;99.90;;;;;;5036695;28;20207;-55
2021/01/01 03:56:24;;;;;;;13.07;8.77;;;0.20;99.90;;;;;;5035735;28;20176;-51
2021/01/01 03:58:49;;;;;;;12.30;9.67;;;0.10;99.90;;;;;;5036117;28;20188;-52
2021/01/01 04:01:16;;;;;;;13.07;9.40;;;0.10;99.90;;;;;;5035352;28;20168;-51
2021/01/01 04:03:42;;;;;;;12.97;9.30;;;0.10;99.90;;;;;;5036093;28;20203;-56
2021/01/01 04:06:07;;;;;;;14.20;9.80;;;0.10;99.90;;;;;;5035684;28;20762;-55
2021/01/01 04:08:33;;;;;;;12.17;9.03;;;0.10;99.90;;;;;;5035482;28;20278;-56
2021/01/01 04:10:58;;;;;;;12.47;8.50;;;0.10;99.90;;;;;;5035902;28;20171;-53
2021/01/01 04:13:24;;;;;;;10.30;7.80;;;0.10;99.90;;;;;;5035425;28;20175;-55
2021/01/01 04:15:49;;;;;;;11.33;8.13;;;0.10;99.90;;;;;;5037283;28;20275;-54
2021/01/01 04:18:16;;;;;;;11.90;8.47;;;0.10;99.90;;;;;;5035618;28;20654;-54
2021/01/01 04:20:42;;;;;;;9.87;7.40;;;0.20;99.90;;;;;;5035705;28;20175;-58
2021/01/01 04:23:07;;;;;;;11.13;7.53;;;0.20;99.90;;;;;;5030891;28;20434;-55
2021/01/01 04:25:33;;;;;;;10.40;7.60;;;0.20;99.90;;;;;;5034886;28;20666;-54
2021/01/01 04:27:58;;;;;;;10.63;7.57;;;0.20;99.90;;;;;;5014733;28;20255;-53
2021/01/01 04:30:24;;;;;;;11.37;8.20;;;0.10;99.90;;;;;;5021427;28;20180;-55
2021/01/01 04:32:50;;;;;;;11.20;8.10;;;0.20;99.90;;;;;;5035916;28;20184;-56
2021/01/01 04:35:15;;;;;;;11.27;8.30;;;0.10;99.90;;;;;;5035176;28;20199;-58
2021/01/01 04:37:41;;;;;;;11.33;8.50;;;0.10;99.90;;;;;;5034757;28;20253;-58
2021/01/01 04:40:07;;;;;;;12.07;8.23;;;0.20;99.90;;;;;;5035124;28;20311;-57
2021/01/01 04:42:33;;;;;;;11.73;8.77;;;0.20;99.90;;;;;;5034386;28;20175;-55
2021/01/01 04:44:58;;;;;;;11.33;8.63;;;0.30;99.90;;;;;;5034587;28;20406;-51
2021/01/01 04:47:27;;;;;;;11.77;7.93;;;0.20;99.90;;;;;;5034312;28;20255;-54
2021/01/01 04:49:52;;;;;;;11.43;7.60;;;0.20;99.90;;;;;;5035655;28;20238;-55
2021/01/01 04:52:18;;;;;;;10.47;7.67;;;0.20;99.90;;;;;;5035523;28;20407;-54
2021/01/01 04:54:49;;;;;;;10.37;7.70;;;0.30;99.90;;;;;;5035081;28;20203;-55
2021/01/01 04:57:14;;;;;;;11.70;8.33;;;0.30;99.90;;;;;;5034416;28;20183;-59
2021/01/01 04:59:40;;;;;;;10.83;7.87;;;0.20;99.90;;;;;;5035457;28;20453;-52
2021/01/01 05:02:05;;;;;;;10.27;7.57;;;0.20;99.90;;;;;;5035264;28;20251;-52
2021/01/01 05:04:31;;;;;;;10.80;8.17;;;0.20;99.90;;;;;;5034282;28;20234;-57
2021/01/01 05:06:56;;;;;;;11.13;8.50;;;0.20;99.90;;;;;;5034818;28;20180;-53
2021/01/01 05:09:22;;;;;;;11.33;7.70;;;0.20;99.90;;;;;;5034678;28;20532;-56
2021/01/01 05:11:48;;;;;;;9.27;7.07;;;0.20;99.90;;;;;;5034969;28;20506;-58
2021/01/01 05:14:14;;;;;;;8.80;6.67;;;0.20;99.90;;;;;;5034757;28;20675;-56
2021/01/01 05:16:51;;;;;;;9.13;6.83;;;0.10;99.90;;;;;;5034249;28;20171;-57
2021/01/01 05:19:17;;;;;;;8.30;6.33;;;0.10;99.90;;;;;;5035371;28;20536;-55
2021/01/01 05:21:42;;;;;;;9.70;6.17;;;0.10;99.90;;;;;;5034851;28;20863;-53
2021/01/01 05:24:15;;;;;;;8.30;6.30;;;0.10;99.90;;;;;;5034650;28;20186;-57
2021/01/01 05:26:47;;;;;;;8.70;6.37;;;0.20;99.90;;;;;;5033976;28;20182;-58
2021/01/01 05:29:20;;;;;;;8.20;6.10;;;0.30;99.90;;;;;;5017190;28;20469;-59
2021/01/01 05:31:47;;;;;;;7.53;6.10;;;0.30;99.90;;;;;;5034116;28;20422;-56
2021/01/01 05:34:13;;;;;;;7.80;5.93;;;0.30;99.90;;;;;;5034590;28;20961;-51
2021/01/01 05:36:47;;;;;;;8.80;6.50;;;0.20;99.90;;;;;;5033852;28;20489;-53
2021/01/01 05:39:18;;;;;;;9.80;6.60;;;0.20;99.90;;;;;;5034568;28;20437;-57
2021/01/01 05:41:51;;;;;;;8.40;6.20;;;0.20;99.90;;;;;;5033024;28;20449;-55
2021/01/01 05:44:20;;;;;;;8.37;6.33;;;0.20;99.90;;;;;;5034339;28;20410;-56
2021/01/01 05:46:59;;;;;;;9.33;6.23;;;0.30;99.90;;;;;;5032179;28;20902;-57
2021/01/01 05:49:27;;;;;;;8.73;6.50;;;0.30;99.90;;;;;;5034024;28;21004;-59
2021/01/01 05:52:18;;;;;;;8.00;5.93;;;0.40;99.90;;;;;;5034653;28;20414;-55
2021/01/01 05:54:58;;;;;;;10.37;7.10;;;0.40;99.90;;;;;;5037293;28;20454;-55
2021/01/01 05:57:36;;;;;;;9.17;6.20;;;0.50;99.90;;;;;;5038277;28;20425;-57
2021/01/01 06:00:09;;;;;;;7.57;5.40;;;0.50;99.90;;;;;;5038171;28;20485;-57
2021/01/01 06:02:42;;;;;;;6.97;5.30;;;0.50;99.90;;;;;;5038675;28;20402;-59
2021/01/01 06:05:09;;;;;;;6.47;4.90;;;0.50;99.90;;;;;;5037774;28;20442;-58
2021/01/01 06:07:39;;;;;;;7.73;4.77;;;0.60;99.90;;;;;;5037520;28;20438;-55
2021/01/01 06:10:06;;;;;;;6.90;4.43;;;0.60;99.90;;;;;;5037383;28;20476;-55
2021/01/01 06:12:37;;;;;;;7.23;4.87;;;0.60;99.90;;;;;;5037876;28;20577;-57
2021/01/01 06:15:08;;;;;;;8.03;5.80;;;0.60;99.90;;;;;;5037999;28;20461;-58
2021/01/01 06:17:51;;;;;;;7.50;5.73;;;0.50;99.90;;;;;;5037588;28;20733;-54
2021/01/01 06:20:23;;;;;;;7.80;5.23;;;0.50;99.90;;;;;;5037659;28;20387;-53
2021/01/01 06:23:25;;;;;;;5.63;4.50;;;0.50;99.90;;;;;;5037664;28;20407;-58
2021/01/01 06:25:51;;;;;;;6.40;3.83;;;0.50;99.90;;;;;;4957728;29;20581;-52
2021/01/01 06:28:17;;;;;;;6.50;4.47;;;0.50;99.90;;;;;;4957280;29;20888;-52
2021/01/01 06:30:42;;;;;;;6.87;4.80;;;0.40;99.90;;;;;;4957517;29;20190;-50
2021/01/01 06:33:08;;;;;;;7.20;4.60;;;0.50;99.90;;;;;;4957799;29;20321;-58
2021/01/01 06:35:42;;;;;;;6.17;4.43;;;0.50;99.90;;;;;;4957251;29;20222;-58
2021/01/01 06:38:07;;;;;;;6.80;4.90;;;0.40;99.90;;;;;;4957032;29;20200;-57
2021/01/01 06:40:35;;;;;;;5.50;4.27;;;0.40;99.90;;;;;;4957745;29;20422;-54
2021/01/01 06:43:07;;;;;;;6.53;4.73;;;0.30;99.90;;;;;;4956773;29;20210;-54
2021/01/01 06:45:39;;;;;;;6.20;4.43;;;0.30;99.90;;;;;;4955863;29;20450;-55
2021/01/01 06:48:05;;;;;;;6.07;4.50;;;0.30;99.90;;;;;;4956970;29;20445;-56
2021/01/01 06:50:33;;;;;;;6.13;4.53;;;0.10;99.90;;;;;;4956780;29;20505;-57
2021/01/01 06:53:03;;;;;;;5.60;4.13;;;0.10;99.90;;;;;;4956950;29;21083;-56
2021/01/01 06:55:39;;;;;;;5.37;3.93;;;0.10;99.90;;;;;;4956959;29;20469;-57
2021/01/01 06:58:07;;;;;;;6.47;4.87;;;0.20;99.90;;;;;;4956647;29;20445;-51
2021/01/01 07:00:52;;;;;;;5.50;4.00;;;0.20;99.90;;;;;;4957794;29;20870;-52
2021/01/01 07:03:29;;;;;;;5.17;4.03;;;0.10;99.90;;;;;;5025796;28;20419;-55
2021/01/01 07:06:17;;;;;;;7.07;4.10;;;0.20;99.90;;;;;;5017173;28;20894;-51
2021/01/01 07:08:44;;;;;;;5.13;3.67;;;0.20;99.90;;;;;;5026922;28;20451;-59
2021/01/01 07:11:09;;;;;;;4.50;4.00;;;0.30;99.90;;;;;;5036251;28;20899;-58
2021/01/01 07:13:45;;;;;;;5.67;4.03;;;0.30;99.90;;;;;;5036425;28;20465;-56
2021/01/01 07:16:12;;;;;;;5.77;4.20;;;0.30;99.90;;;;;;5033614;28;20222;-58
2021/01/01 07:18:38;;;;;;;6.07;4.73;;;0.40;99.90;;;;;;5032083;28;20768;-55
2021/01/01 07:21:08;;;;;;;6.93;4.83;;;0.40;99.90;;;;;;5020501;28;20959;-51
2021/01/01 07:23:35;;;;;;;8.53;5.17;;;0.50;99.90;;;;;;5033285;28;20183;-53
2021/01/01 07:26:02;;;;;;;5.43;4.07;;;0.60;99.90;;;;;;5035620;28;20426;-57
2021/01/01 07:28:28;;;;;;;6.60;4.17;;;0.60;99.90;;;;;;5034849;28;20768;-55
2021/01/01 07:30:55;;;;;;;5.63;4.17;;;0.70;99.90;;;;;;5034129;28;20434;-56
2021/01/01 07:33:21;;;;;;;5.20;4.23;;;0.80;99.90;;;;;;5035376;28;20447;-52
2021/01/01 07:35:58;;;;;;;6.00;4.30;;;0.80;99.90;;;;;;5032554;28;20428;-58
2021/01/01 07:38:25;;;;;;;6.90;4.10;;;0.90;99.90;;;;;;5030720;28;20434;-55
2021/01/01 07:40:52;;;;;;;5.87;4.63;;;0.90;99.90;;;;;;5036291;28;20434;-55
2021/01/01 07:43:17;;;;;;;5.90;4.47;;;0.90;99.90;;;;;;5036346;28;20402;-57
2021/01/01 07:45:43;;;;;;;5.37;4.17;;;1.00;99.90;;;;;;5035284;28;20430;-57
2021/01/01 07:48:10;;;;;;;6.20;3.70;;;1.10;99.90;;;;;;5035853;28;20668;-55
2021/01/01 07:50:37;;;;;;;5.90;4.00;;;1.10;99.90;;;;;;5036732;28;20223;-55
2021/01/01 07:53:10;;;;;;;4.97;3.60;;;1.20;99.90;;;;;;5033283;28;20423;-58
2021/01/01 07:55:37;;;;;;;7.00;4.40;;;1.20;99.90;;;;;;5035764;28;20462;-56
2021/01/01 07:58:11;;;;;;;5.77;4.67;;;1.30;99.90;;;;;;5033965;28;20524;-57
2021/01/01 08:00:40;;;;;;;4.87;3.90;;;1.40;99.90;;;;;;5034210;28;20426;-56
2021/01/01 08:03:07;;;;;;;6.40;4.23;;;1.50;99.90;;;;;;5029546;28;20422;-57
2021/01/01 08:05:33;;;;;;;5.73;4.07;;;1.70;99.90;;;;;;5016115;28;20407;-53
2021/01/01 08:08:20;;;;;;;6.07;4.70;;;2.00;99.90;;;;;;5026534;28;20435;-58
2021/01/01 08:10:46;;;;;;;7.47;4.50;;;2.70;99.90;;;;;;5032769;28;20438;-54
2021/01/01 08:13:20;;;;;;;9.70;6.67;;;3.80;99.90;;;;;;5035074;28;20468;-59
2021/01/01 08:15:47;;;;;;;6.47;4.97;;;5.10;98.90;;;;;;5035298;28;20175;-59
2021/01/01 08:18:16;;;;;;;5.47;4.60;;;6.40;96.40;;;;;;5033264;28;20184;-59
2021/01/01 08:20:46;;;;;;;5.90;4.77;;;8.00;93.60;;;;;;5033992;28;20661;-59
2021/01/01 08:23:14;;;;;;;6.50;5.33;;;9.90;90.90;;;;;;5035049;28;20184;-58
2021/01/01 08:25:40;;;;;;;6.87;5.50;;;11.80;83.20;;;;;;5035406;28;20183;-59
2021/01/01 08:28:07;;;;;;;9.17;6.73;;;13.60;75.30;;;;;;5032649;28;20219;-57
2021/01/01 08:30:37;;;;;;;8.93;6.90;;;14.90;67.90;;;;;;5033485;28;20173;-58
2021/01/01 08:33:08;;;;;;;14.20;10.23;;;15.70;62.60;;;;;;5028905;28;20296;-58
2021/01/01 08:35:34;;;;;;;15.87;12.00;;;15.90;59.70;;;;;;5015134;28;20210;-54
2021/01/01 08:38:13;;;;;;;17.77;13.80;;;15.80;58.80;;;;;;5026558;28;20288;-56
2021/01/01 08:40:42;;;;;;;16.67;10.90;;;15.30;57.20;;;;;;5034982;28;20255;-58
2021/01/01 08:43:07;;;;;;;8.80;6.70;;;14.50;56.80;;;;;;5035192;28;20180;-56
2021/01/01 08:45:33;;;;;;;6.53;5.03;;;13.40;58.10;;;;;;5034188;28;20179;-53
2021/01/01 08:48:08;;;;;;;6.20;4.93;;;12.40;59.60;;;;;;5034441;28;20592;-57
2021/01/01 08:50:34;;;;;;;5.60;5.00;;;11.80;61.90;;;;;;5035097;28;20262;-58
2021/01/01 08:53:04;;;;;;;6.23;4.97;;;11.40;62.90;;;;;;5034364;28;20234;-60
2021/01/01 08:55:30;;;;;;;14.87;10.70;;;10.90;63.90;;;;;;5031982;28;20242;-57
2021/01/01 08:58:15;;;;;;;38.40;25.90;;;10.50;64.80;;;;;;5015912;28;20195;-57
2021/01/01 09:00:45;;;;;;;69.13;46.67;;;10.20;65.60;;;;;;5032882;28;20662;-57
2021/01/01 09:03:16;;;;;;;23.87;15.93;;;10.00;66.70;;;;;;5032430;28;20191;-56
2021/01/01 09:05:42;;;;;;;8.00;6.30;;;9.60;68.30;;;;;;5032107;28;20721;-57
2021/01/01 09:08:16;;;;;;;7.13;5.77;;;9.40;69.10;;;;;;5030863;28;20207;-54
2021/01/01 09:10:47;;;;;;;9.53;6.80;;;9.30;69.90;;;;;;5014392;28;20198;-58
2021/01/01 09:13:16;;;;;;;13.03;9.30;;;9.20;70.40;;;;;;5032155;28;20168;-55
2021/01/01 09:15:42;;;;;;;12.63;8.90;;;9.00;71.00;;;;;;5030845;28;20209;-58
2021/01/01 09:18:08;;;;;;;12.67;8.93;;;8.80;71.50;;;;;;5032036;28;20184;-53
2021/01/01 09:20:35;;;;;;;10.97;8.20;;;8.50;72.30;;;;;;5032203;28;20222;-58
2021/01/01 09:23:02;;;;;;;9.93;7.13;;;8.20;73.30;;;;;;5031887;28;20665;-58
2021/01/01 09:25:29;;;;;;;8.77;6.67;;;8.00;74.30;;;;;;5032010;28;20183;-59
2021/01/01 09:27:55;;;;;;;9.77;6.93;;;7.70;75.40;;;;;;5030164;28;20694;-59
2021/01/01 09:30:27;;;;;;;10.23;7.60;;;7.50;76.80;;;;;;5031687;28;20171;-56
2021/01/01 09:32:55;;;;;;;11.90;8.53;;;6.90;77.80;;;;;;5033462;28;20314;-54
2021/01/01 09:35:21;;;;;;;12.40;9.67;;;6.20;80.50;;;;;;5032391;28;20219;-53
2021/01/01 09:38:01;;;;;;;13.90;10.53;;;5.50;83.00;;;;;;5032166;28;20694;-59
2021/01/01 09:40:34;;;;;;;16.87;12.47;;;4.60;87.00;;;;;;5032179;28;20180;-56
2021/01/01 09:43:04;;;;;;;16.87;12.27;;;3.70;90.40;;;;;;5034022;28;20168;-57
2021/01/01 09:45:30;;;;;;;17.30;13.70;;;3.10;92.60;;;;;;5032923;28;20674;-58
2021/01/01 09:47:56;;;;;;;19.20;14.00;;;2.80;94.30;;;;;;5034390;28;20200;-53
2021/01/01 09:50:21;;;;;;;17.10;13.70;;;2.90;96.20;;;;;;5032388;28;20172;-57
2021/01/01 09:52:47;;;;;;;17.87;13.47;;;3.00;96.70;;;;;;5031608;28;20286;-56
2021/01/01 09:55:12;;;;;;;16.47;13.07;;;3.10;96.80;;;;;;5033061;28;20239;-57
2021/01/01 09:57:38;;;;;;;18.47;14.13;;;3.00;97.30;;;;;;5033148;28;20636;-57
2021/01/01 10:00:09;;;;;;;16.33;13.23;;;2.90;98.20;;;;;;5033979;28;20180;-59
2021/01/01 10:02:34;;;;;;;17.23;12.77;;;2.90;98.10;;;;;;5030496;28;20222;-59
2021/01/01 10:05:00;;;;;;;15.93;12.60;;;3.20;98.10;;;;;;5032438;28;20231;-57
2021/01/01 10:07:29;;;;;;;16.00;12.93;;;3.60;97.90;;;;;;5034273;28;20670;-54
2021/01/01 10:09:56;;;;;;;16.77;11.97;;;4.20;97.30;;;;;;5030413;28;20237;-56
2021/01/01 10:12:21;;;;;;;14.80;10.87;;;4.70;96.30;;;;;;5030953;28;20198;-58
2021/01/01 10:14:48;;;;;;;12.43;10.57;;;5.20;95.40;;;;;;5029852;28;20208;-57
2021/01/01 10:17:13;;;;;;;14.97;11.27;;;5.70;94.80;;;;;;5030606;28;20267;-58
2021/01/01 10:19:42;;;;;;;11.70;9.60;;;5.90;93.80;;;;;;5030038;28;20231;-57
2021/01/01 10:22:08;;;;;;;12.07;9.23;;;6.10;93.40;;;;;;5031202;28;20672;-55
2021/01/01 10:24:34;;;;;;;12.73;9.87;;;6.40;93.00;;;;;;5033500;28;20184;-58
2021/01/01 10:27:00;;;;;;;11.90;9.70;;;6.70;92.60;;;;;;5032815;28;20187;-55
2021/01/01 10:29:25;;;;;;;13.10;10.30;;;7.10;92.30;;;;;;5027938;28;20215;-58
2021/01/01 10:31:51;;;;;;;10.77;8.87;;;7.50;92.00;;;;;;5032155;28;20609;-55
2021/01/01 10:34:17;;;;;;;12.57;9.97;;;7.90;91.60;;;;;;5030685;28;20203;-59
2021/01/01 10:36:42;;;;;;;12.90;9.27;;;8.30;90.70;;;;;;5031671;28;20259;-59
2021/01/01 10:39:09;;;;;;;10.30;9.17;;;8.60;90.30;;;;;;5028590;28;20287;-55
2021/01/01 10:41:37;;;;;;;11.03;9.60;;;8.90;90.00;;;;;;5035083;28;20172;-55
2021/01/01 10:44:04;;;;;;;12.27;10.60;;;9.10;89.40;;;;;;5036000;28;20652;-58
2021/01/01 10:46:30;;;;;;;11.00;9.80;;;9.30;88.40;;;;;;5034712;28;20199;-56
2021/01/01 10:48:57;;;;;;;13.87;11.63;;;9.50;87.90;;;;;;5034982;28;20238;-52
2021/01/01 10:51:24;;;;;;;15.83;13.47;;;9.80;87.00;;;;;;5035844;28;20588;-57
2021/01/01 10:53:50;;;;;;;14.00;11.20;;;10.20;85.00;;;;;;5033240;28;20307;-59
2021/01/01 10:56:23;;;;;;;13.83;11.70;;;10.40;82.00;;;;;;5035726;28;20176;-56
2021/01/01 10:58:48;;;;;;;12.27;10.50;;;10.50;81.00;;;;;;5034499;28;20618;-56
2021/01/01 11:01:20;;;;;;;13.03;10.90;;;10.40;80.70;;;;;;5036423;28;20207;-59
2021/01/01 11:03:47;;;;;;;13.83;11.67;;;10.00;81.20;;;;;;5035185;28;20251;-55
2021/01/01 11:06:13;;;;;;;14.00;11.77;;;9.60;83.90;;;;;;5035785;28;20179;-59
2021/01/01 11:08:40;;;;;;;14.40;12.60;;;9.40;85.70;;;;;;5035998;28;20226;-57
2021/01/01 11:11:06;;;;;;;17.27;13.13;;;8.80;86.30;;;;;;5034839;28;20678;-57
2021/01/01 11:13:31;;;;;;;14.73;11.37;;;8.20;88.30;;;;;;5034657;28;20859;-59
2021/01/01 12:27:01;;;;;;;12.10;10.80;;;17.70;58.70;;;;;;5032292;28;20279;-58
2021/01/01 12:29:28;;;;;;;12.37;11.07;;;18.20;59.00;;;;;;5033655;28;20598;-59
2021/01/01 12:31:55;;;;;;;13.50;11.83;;;19.10;57.30;;;;;;5034214;28;20644;-60
2021/01/01 12:34:20;;;;;;;12.70;10.83;;;20.00;56.60;;;;;;4999392;28;20248;-60
2021/01/01 12:36:46;;;;;;;13.40;12.05;;;21.00;55.70;;;;;;5034179;28;20204;-59
2021/01/01 12:39:12;;;;;;;11.95;10.75;;;22.00;53.30;;;;;;5034124;28;20661;-61
2021/01/01 12:41:38;;;;;;;11.60;10.40;;;22.70;52.00;;;;;;5017232;28;20176;-60
2021/01/01 12:44:04;;;;;;;10.90;9.80;;;23.20;50.30;;;;;;5034624;28;20172;-59
2021/01/01 12:46:30;;;;;;;11.15;10.05;;;23.60;49.00;;;;;;5031351;28;20184;-62
2021/01/01 12:48:56;;;;;;;12.45;10.75;;;23.80;48.00;;;;;;5032556;28;20346;-61
2021/01/01 12:51:21;;;;;;;11.25;10.05;;;23.90;47.20;;;;;;5032618;28;20628;-58
2021/01/01 12:53:47;;;;;;;11.95;10.63;;;23.70;46.50;;;;;;5032191;28;20215;-58
2021/01/01 12:56:13;;;;;;;11.52;10.40;;;23.50;46.10;;;;;;5031231;28;20216;-59
2021/01/01 12:58:39;;;;;;;11.82;10.63;;;23.00;46.40;;;;;;5031796;28;20258;-59
2021/01/01 13:01:04;;;;;;;11.90;9.93;;;22.40;46.90;;;;;;5031694;28;20179;-61
2021/01/01 13:03:30;;;;;;;11.43;10.25;;;21.50;47.90;;;;;;5031549;28;20195;-61
2021/01/01 13:05:55;;;;;;;10.93;9.82;;;21.30;48.90;;;;;;5033315;28;20176;-59
2021/01/01 13:08:21;;;;;;;11.48;10.27;;;21.40;48.30;;;;;;5033441;28;20187;-61
2021/01/01 13:10:46;;;;;;;11.38;10.18;;;21.10;48.00;;;;;;5035060;28;20176;-61
2021/01/01 13:13:12;;;;;;;11.98;10.60;;;21.10;48.60;;;;;;5034711;28;20176;-61
2021/01/01 13:15:37;;;;;;;12.10;10.90;;;21.20;48.60;;;;;;5035039;28;20732;-61
2021/01/01 13:18:05;;;;;;;11.75;10.55;;;21.30;48.40;;;;;;5034726;28;20674;-59
2021/01/01 13:20:30;;;;;;;12.93;10.88;;;21.40;48.10;;;;;;5034183;28;20188;-62
2021/01/01 13:22:56;;;;;;;12.52;11.15;;;21.50;47.60;;;;;;5034494;28;20180;-60
2021/01/01 13:25:21;;;;;;;12.35;10.60;;;20.90;48.00;;;;;;5034476;28;20188;-59
2021/01/01 13:27:47;;;;;;;13.37;11.97;;;20.40;48.20;;;;;;5034566;28;20679;-58
2021/01/01 13:30:16;;;;;;;13.00;11.17;;;20.10;48.70;;;;;;5034792;28;20628;-56
2021/01/01 13:32:43;;;;;;;11.80;10.60;;;19.50;49.10;;;;;;5033822;28;20627;-59
2021/01/01 13:35:09;;;;;;;11.47;10.27;;;19.10;49.60;;;;;;5034284;28;20210;-61
2021/01/01 13:37:34;;;;;;;13.00;10.80;;;18.90;49.70;;;;;;5031133;28;20286;-59
2021/01/01 13:40:04;;;;;;;10.93;9.83;;;18.90;50.20;;;;;;5028514;28;20297;-62
2021/01/01 13:42:30;;;;;;;13.67;10.43;;;18.90;50.50;;;;;;5033009;28;20234;-61
2021/01/01 13:44:57;;;;;;;12.10;10.20;;;19.10;50.00;;;;;;5033301;28;20267;-60
2021/01/01 13:47:25;;;;;;;10.27;9.20;;;19.20;50.00;;;;;;5033369;28;20263;-61
2021/01/01 13:49:51;;;;;;;11.10;9.60;;;19.20;49.90;;;;;;5033718;28;20183;-61
2021/01/01 13:52:17;;;;;;;11.67;10.40;;;19.20;49.90;;;;;;5033644;28;20176;-59
2021/01/01 13:54:43;;;;;;;12.23;10.93;;;19.10;50.00;;;;;;5033688;28;20203;-62